createdAt,value
2019-02-27T00:03:32.369Z,87.34
2019-02-27T00:08:28.007Z,86.96
2019-02-27T00:13:25.444Z,88.01
2019-02-27T00:18:23.777Z,87.91
2019-02-27T00:23:19.161Z,88.01
2019-02-27T00:28:14.756Z,88.48
2019-02-27T00:33:10.822Z,89.14
2019-02-27T00:38:06.640Z,89.14
2019-02-27T00:43:02.471Z,90.95
2019-02-27T00:47:58.333Z,90.57
2019-02-27T00:52:54.188Z,90.43
2019-02-27T00:57:51.804Z,90.71
2019-02-27T01:02:52.769Z,91.75
2019-02-27T01:07:47.996Z,92.99
2019-02-27T01:12:43.584Z,93.37
2019-02-27T01:17:39.080Z,94.37
2019-02-27T01:22:34.763Z,95.31
2019-02-27T01:27:31.271Z,94.84
2019-02-27T01:32:28.861Z,95.12
2019-02-27T01:37:25.496Z,95.88
2019-02-27T01:42:21.039Z,95.79
2019-02-27T01:47:16.911Z,95.03
2019-02-27T01:52:12.437Z,94.84
2019-02-27T01:57:07.990Z,94.65
2019-02-27T02:02:04.194Z,94.32
2019-02-27T02:06:59.509Z,94.18
2019-02-27T02:11:55.290Z,93.23
2019-02-27T02:16:50.938Z,92.09
2019-02-27T02:21:46.920Z,92.42
2019-02-27T02:26:42.756Z,93.56
2019-02-27T02:31:41.624Z,94.60
2019-02-27T02:36:37.134Z,92.99
2019-02-27T02:41:33.463Z,92.38
2019-02-27T02:46:29.430Z,91.42
2019-02-27T02:51:28.674Z,90.48
2019-02-27T02:56:25.135Z,90.95
2019-02-27T03:01:20.618Z,90.86
2019-02-27T03:06:16.227Z,89.15
2019-02-27T03:11:17.920Z,88.39
2019-02-27T03:16:10.605Z,89.91
2019-02-27T03:21:06.193Z,90.00
2019-02-27T03:26:02.223Z,90.62
2019-02-27T03:30:57.667Z,91.95
2019-02-27T03:35:53.274Z,92.80
2019-02-27T03:40:49.025Z,93.84
2019-02-27T03:45:44.712Z,94.60
2019-02-27T03:50:42.074Z,94.13
2019-02-27T03:55:37.490Z,93.46
2019-02-27T04:00:33.106Z,93.75
2019-02-27T04:05:28.817Z,92.33
2019-02-27T04:10:30.964Z,91.19
2019-02-27T04:15:23.687Z,91.85
2019-02-27T04:20:19.161Z,90.91
2019-02-27T04:25:14.766Z,91.57
2019-02-27T04:30:14.755Z,92.71
2019-02-27T04:35:10.024Z,93.99
2019-02-27T04:40:05.702Z,94.74
2019-02-27T04:45:02.209Z,95.79
2019-02-27T04:49:57.656Z,97.30
2019-02-27T04:54:53.298Z,97.68
2019-02-27T04:59:49.758Z,98.25
2019-02-27T05:04:46.655Z,97.49
2019-02-27T05:09:43.437Z,99.20
2019-02-27T05:14:39.301Z,99.20
2019-02-27T05:19:37.217Z,97.97
2019-02-27T05:24:33.647Z,97.49
2019-02-27T05:29:29.768Z,98.25
2019-02-27T05:34:25.206Z,98.63
2019-02-27T05:39:21.128Z,98.91
2019-02-27T05:44:21.450Z,97.97
2019-02-27T05:49:15.707Z,96.55
2019-02-27T05:54:10.936Z,95.93
2019-02-27T05:59:07.792Z,96.17
2019-02-27T06:04:03.077Z,96.45
2019-02-27T06:08:58.537Z,98.54
2019-02-27T06:13:54.088Z,99.39
2019-02-27T06:18:49.583Z,98.82
2019-02-27T06:23:45.195Z,97.87
2019-02-27T06:28:41.905Z,99.77
2019-02-27T06:33:37.229Z,99.99
2019-02-27T06:38:32.993Z,99.99
2019-02-27T06:43:29.445Z,99.99
2019-02-27T06:48:24.774Z,99.99
2019-02-27T06:53:20.299Z,99.99
2019-02-27T06:58:16.653Z,99.99
2019-02-27T07:03:13.382Z,98.44
2019-02-27T07:08:08.840Z,98.96
2019-02-27T07:13:04.759Z,97.83
2019-02-27T07:18:00.502Z,96.50
2019-02-27T07:22:56.371Z,95.60
2019-02-27T07:27:53.182Z,94.04
2019-02-27T07:32:48.861Z,92.66
2019-02-27T07:37:47.440Z,90.38
2019-02-27T07:42:43.111Z,89.39
2019-02-27T07:47:38.728Z,89.48
2019-02-27T07:52:34.626Z,89.58
2019-02-27T07:57:30.534Z,89.20
2019-02-27T08:02:26.457Z,85.82
2019-02-27T08:07:22.281Z,85.06
2019-02-27T08:12:19.988Z,84.59
2019-02-27T08:17:17.847Z,84.78
2019-02-27T08:22:13.257Z,82.35
2019-02-27T08:27:09.626Z,82.82
2019-02-27T08:32:06.633Z,81.97
2019-02-27T08:37:03.127Z,79.50
2019-02-27T08:42:03.341Z,78.21
2019-02-27T08:46:58.060Z,78.02
2019-02-27T08:51:54.510Z,76.88
2019-02-27T08:56:50.574Z,77.73
2019-02-27T09:01:46.387Z,77.64
2019-02-27T09:06:43.118Z,77.01
2019-02-27T09:11:40.042Z,77.20
2019-02-27T09:16:37.261Z,76.57
2019-02-27T09:21:32.723Z,75.72
2019-02-27T09:26:29.317Z,75.81
2019-02-27T09:31:25.491Z,73.28
2019-02-27T09:36:21.122Z,70.84
2019-02-27T09:41:17.638Z,70.31
2019-02-27T09:46:13.871Z,68.15
2019-02-27T09:51:09.939Z,65.61
2019-02-27T09:56:06.100Z,62.65
2019-02-27T10:01:03.177Z,61.73
2019-02-27T10:06:00.642Z,60.11
2019-02-27T10:10:56.423Z,58.70
2019-02-27T10:15:54.088Z,57.50
2019-02-27T10:20:49.688Z,55.87
2019-02-27T10:25:45.937Z,55.71
2019-02-27T10:30:41.801Z,54.39
2019-02-27T10:35:39.504Z,52.39
2019-02-27T10:40:35.865Z,51.53
2019-02-27T10:45:32.136Z,49.64
2019-02-27T10:50:29.314Z,47.66
2019-02-27T10:55:26.854Z,46.15
2019-02-27T11:00:24.889Z,44.33
2019-02-27T11:05:22.000Z,43.77
2019-02-27T11:10:18.734Z,44.54
2019-02-27T11:15:14.611Z,44.73
2019-02-27T11:20:11.526Z,44.68
2019-02-27T11:25:07.677Z,43.91
2019-02-27T11:30:03.990Z,44.23
2019-02-27T11:35:00.713Z,44.32
2019-02-27T11:39:57.068Z,44.90
2019-02-27T11:44:52.934Z,44.63
2019-02-27T11:49:48.884Z,44.44
2019-02-27T11:54:44.887Z,44.23
2019-02-27T11:59:40.461Z,44.90
2019-02-27T12:04:35.836Z,45.37
2019-02-27T12:09:34.973Z,46.62
2019-02-27T12:14:30.112Z,46.34
2019-02-27T12:19:25.996Z,46.62
2019-02-27T12:24:21.663Z,47.10
2019-02-27T12:29:18.176Z,46.53
2019-02-27T12:34:15.365Z,47.22
2019-02-27T12:39:15.287Z,46.55
2019-02-27T12:44:10.402Z,46.84
2019-02-27T12:49:07.648Z,46.77
2019-02-27T12:54:04.632Z,47.25
2019-02-27T12:58:59.988Z,48.30
2019-02-27T13:03:56.858Z,47.63
2019-02-27T13:08:52.923Z,48.85
2019-02-27T13:13:48.732Z,49.05
2019-02-27T13:18:46.486Z,48.88
2019-02-27T13:23:42.387Z,48.85
2019-02-27T13:28:37.868Z,49.33
2019-02-27T13:33:35.523Z,50.39
2019-02-27T13:38:32.600Z,50.29
2019-02-27T13:43:28.624Z,49.07
2019-02-27T13:48:25.191Z,48.88
2019-02-27T13:53:25.774Z,49.00
2019-02-27T13:58:21.498Z,48.81
2019-02-27T14:03:17.497Z,47.87
2019-02-27T14:08:13.976Z,46.74
2019-02-27T14:13:10.011Z,46.74
2019-02-27T14:18:06.788Z,48.45
2019-02-27T14:23:02.490Z,47.94
2019-02-27T14:27:57.955Z,48.81
2019-02-27T14:32:53.717Z,49.36
2019-02-27T14:37:51.038Z,50.29
2019-02-27T14:42:46.335Z,50.96
2019-02-27T14:47:41.957Z,51.16
2019-02-27T14:52:37.917Z,51.64
2019-02-27T14:57:33.487Z,52.95
2019-02-27T15:02:29.072Z,52.28
2019-02-27T15:07:25.171Z,51.71
2019-02-27T15:12:20.696Z,51.71
2019-02-27T15:17:20.287Z,52.09
2019-02-27T15:22:15.395Z,51.71
2019-02-27T15:27:10.807Z,51.81
2019-02-27T15:32:06.538Z,51.42
2019-02-27T15:37:04.243Z,51.71
2019-02-27T15:42:00.311Z,51.68
2019-02-27T15:46:56.660Z,51.78
2019-02-27T15:51:52.679Z,53.12
2019-02-27T15:56:49.342Z,51.87
2019-02-27T16:01:44.676Z,51.78
2019-02-27T16:06:41.797Z,51.78
2019-02-27T16:11:37.016Z,51.87
2019-02-27T16:16:32.918Z,52.81
2019-02-27T16:21:29.042Z,53.00
2019-02-27T16:26:27.167Z,53.96
2019-02-27T16:31:22.863Z,54.34
2019-02-27T16:36:18.504Z,54.91
2019-02-27T16:41:13.938Z,55.27
2019-02-27T16:46:10.661Z,55.56
2019-02-27T16:51:07.474Z,57.28
2019-02-27T16:56:04.082Z,58.02
2019-02-27T17:00:59.859Z,57.92
2019-02-27T17:05:55.479Z,58.22
2019-02-27T17:10:51.920Z,59.62
2019-02-27T17:15:47.466Z,60.77
2019-02-27T17:20:45.767Z,59.72
2019-02-27T17:25:41.306Z,60.48
2019-02-27T17:30:38.165Z,62.46
2019-02-27T17:35:33.644Z,63.70
2019-02-27T17:40:29.411Z,63.00
2019-02-27T17:45:24.959Z,65.77
2019-02-27T17:50:20.707Z,64.82
2019-02-27T17:55:16.478Z,66.03
2019-02-27T18:00:12.945Z,63.57
2019-02-27T18:05:11.089Z,62.62
2019-02-27T18:10:07.769Z,62.81
2019-02-27T18:15:05.088Z,63.48
2019-02-27T18:20:00.508Z,64.53
2019-02-27T18:24:56.236Z,65.01
2019-02-27T18:29:51.976Z,65.55
2019-02-27T18:34:47.863Z,65.64
2019-02-27T18:39:43.548Z,67.43
2019-02-27T18:44:41.466Z,66.60
2019-02-27T18:49:36.794Z,67.43
2019-02-27T18:54:33.361Z,67.33
2019-02-27T18:59:30.265Z,67.52
2019-02-27T19:04:25.730Z,66.76
2019-02-27T19:09:21.511Z,66.95
2019-02-27T19:14:17.261Z,67.62
2019-02-27T19:19:13.770Z,67.77
2019-02-27T19:24:10.737Z,68.06
2019-02-27T19:29:07.445Z,69.11
2019-02-27T19:34:02.900Z,68.63
2019-02-27T19:38:59.272Z,68.82
2019-02-27T19:43:55.951Z,68.51
2019-02-27T19:48:51.349Z,69.27
2019-02-27T19:53:46.985Z,70.13
2019-02-27T19:58:43.403Z,70.42
2019-02-27T20:03:40.271Z,70.13
2019-02-27T20:08:36.407Z,69.93
2019-02-27T20:13:32.756Z,69.74
2019-02-27T20:18:28.703Z,69.93
2019-02-27T20:23:26.412Z,70.86
2019-02-27T20:28:21.399Z,69.17
2019-02-27T20:33:17.035Z,69.62
2019-02-27T20:38:15.970Z,69.84
2019-02-27T20:43:15.577Z,70.00
2019-02-27T20:48:11.510Z,70.00
2019-02-27T20:53:06.948Z,70.19
2019-02-27T20:58:02.814Z,70.67
2019-02-27T21:03:02.506Z,70.86
2019-02-27T21:08:01.981Z,72.09
2019-02-27T21:12:56.653Z,73.52
2019-02-27T21:17:57.589Z,73.91
2019-02-27T21:22:52.693Z,74.10
2019-02-27T21:27:48.245Z,74.10
2019-02-27T21:32:43.804Z,75.34
2019-02-27T21:37:44.388Z,76.39
2019-02-27T21:42:39.616Z,76.92
2019-02-27T21:47:36.334Z,76.82
2019-02-27T21:52:31.475Z,77.30
2019-02-27T21:57:27.535Z,78.73
2019-02-27T22:02:23.548Z,79.59
2019-02-27T22:07:20.081Z,80.35
2019-02-27T22:12:15.674Z,81.59
2019-02-27T22:17:11.913Z,81.68
2019-02-27T22:22:08.128Z,82.11
2019-02-27T22:27:05.507Z,82.40
2019-02-27T22:32:01.037Z,82.83
2019-02-27T22:36:56.775Z,83.16
2019-02-27T22:41:52.345Z,83.50
2019-02-27T22:46:48.607Z,83.50
2019-02-27T22:51:45.276Z,83.78
2019-02-27T22:56:42.613Z,84.45
2019-02-27T23:01:38.331Z,84.74
2019-02-27T23:06:34.137Z,84.98
2019-02-27T23:11:30.055Z,85.93
2019-02-27T23:16:25.751Z,86.51
2019-02-27T23:21:21.490Z,87.07
2019-02-27T23:26:19.852Z,87.27
2019-02-27T23:31:15.540Z,87.36
2019-02-27T23:36:11.172Z,88.37
2019-02-27T23:41:07.020Z,88.56
2019-02-27T23:46:03.725Z,89.22
2019-02-27T23:50:59.205Z,89.61
2019-02-27T23:55:55.829Z,90.65
